sensor_id;sensor_type;location;lat;lon;timestamp;P1;durP1;ratioP1;P2;durP2;ratioP2
58661;SDS011;44432;49.786;22.760;2022-08-25T00:01:10;28.70;;;8.90;;
58661;SDS011;44432;49.786;22.760;2022-08-25T00:03:46;30.10;;;8.80;;
58661;SDS011;44432;49.786;22.760;2022-08-25T00:06:17;21.50;;;8.30;;
58661;SDS011;44432;49.786;22.760;2022-08-25T00:08:48;30.70;;;9.30;;
58661;SDS011;44432;49.786;22.760;2022-08-25T00:11:20;26.90;;;9.30;;
58661;SDS011;44432;49.786;22.760;2022-08-25T00:13:52;32.30;;;9.20;;
58661;SDS011;44432;49.786;22.760;2022-08-25T00:16:27;25.40;;;8.50;;
58661;SDS011;44432;49.786;22.760;2022-08-25T00:19:00;26.30;;;8.90;;
58661;SDS011;44432;49.786;22.760;2022-08-25T00:21:33;30.00;;;9.00;;
58661;SDS011;44432;49.786;22.760;2022-08-25T00:24:05;21.40;;;8.90;;
58661;SDS011;44432;49.786;22.760;2022-08-25T00:26:38;25.80;;;9.30;;
58661;SDS011;44432;49.786;22.760;2022-08-25T00:29:10;21.90;;;8.60;;
58661;SDS011;44432;49.786;22.760;2022-08-25T00:31:41;23.60;;;8.30;;
58661;SDS011;44432;49.786;22.760;2022-08-25T00:34:14;28.00;;;8.50;;
58661;SDS011;44432;49.786;22.760;2022-08-25T00:36:47;30.40;;;9.20;;
58661;SDS011;44432;49.786;22.760;2022-08-25T00:39:18;21.70;;;8.90;;
58661;SDS011;44432;49.786;22.760;2022-08-25T00:41:51;21.90;;;9.10;;
58661;SDS011;44432;49.786;22.760;2022-08-25T00:44:25;29.90;;;9.20;;
58661;SDS011;44432;49.786;22.760;2022-08-25T00:46:59;28.20;;;9.70;;
58661;SDS011;44432;49.786;22.760;2022-08-25T00:49:33;24.50;;;9.80;;
58661;SDS011;44432;49.786;22.760;2022-08-25T00:52:08;27.30;;;10.10;;
58661;SDS011;44432;49.786;22.760;2022-08-25T00:54:43;28.00;;;9.90;;
58661;SDS011;44432;49.786;22.760;2022-08-25T00:57:18;25.70;;;10.10;;
58661;SDS011;44432;49.786;22.760;2022-08-25T00:59:52;28.90;;;11.40;;
58661;SDS011;44432;49.786;22.760;2022-08-25T01:02:24;26.60;;;9.20;;
58661;SDS011;44432;49.786;22.760;2022-08-25T01:04:54;25.60;;;9.80;;
58661;SDS011;44432;49.786;22.760;2022-08-25T01:07:25;28.40;;;9.00;;
58661;SDS011;44432;49.786;22.760;2022-08-25T01:09:56;32.00;;;10.40;;
58661;SDS011;44432;49.786;22.760;2022-08-25T01:12:27;27.40;;;9.80;;
58661;SDS011;44432;49.786;22.760;2022-08-25T01:14:58;19.30;;;8.90;;
58661;SDS011;44432;49.786;22.760;2022-08-25T01:17:33;23.30;;;8.80;;
58661;SDS011;44432;49.786;22.760;2022-08-25T01:20:12;26.40;;;9.80;;
58661;SDS011;44432;49.786;22.760;2022-08-25T01:22:45;31.10;;;9.30;;
58661;SDS011;44432;49.786;22.760;2022-08-25T01:25:19;20.60;;;8.50;;
58661;SDS011;44432;49.786;22.760;2022-08-25T01:27:55;24.00;;;8.80;;
58661;SDS011;44432;49.786;22.760;2022-08-25T01:30:26;19.40;;;9.30;;
58661;SDS011;44432;49.786;22.760;2022-08-25T01:32:57;18.00;;;9.20;;
58661;SDS011;44432;49.786;22.760;2022-08-25T01:35:30;20.70;;;9.10;;
58661;SDS011;44432;49.786;22.760;2022-08-25T01:38:01;19.70;;;9.50;;
58661;SDS011;44432;49.786;22.760;2022-08-25T01:40:33;26.50;;;9.70;;
58661;SDS011;44432;49.786;22.760;2022-08-25T01:43:15;26.80;;;8.80;;
58661;SDS011;44432;49.786;22.760;2022-08-25T01:45:58;16.20;;;8.30;;
58661;SDS011;44432;49.786;22.760;2022-08-25T01:48:28;20.40;;;8.90;;
58661;SDS011;44432;49.786;22.760;2022-08-25T01:51:00;19.70;;;8.80;;
58661;SDS011;44432;49.786;22.760;2022-08-25T01:53:30;23.40;;;9.10;;
58661;SDS011;44432;49.786;22.760;2022-08-25T01:56:07;26.10;;;9.40;;
58661;SDS011;44432;49.786;22.760;2022-08-25T01:58:41;28.50;;;9.30;;
58661;SDS011;44432;49.786;22.760;2022-08-25T02:01:14;22.20;;;9.90;;
58661;SDS011;44432;49.786;22.760;2022-08-25T02:03:47;20.90;;;9.60;;
58661;SDS011;44432;49.786;22.760;2022-08-25T02:06:20;25.50;;;10.00;;
58661;SDS011;44432;49.786;22.760;2022-08-25T02:08:54;29.70;;;9.50;;
58661;SDS011;44432;49.786;22.760;2022-08-25T02:11:27;20.90;;;9.40;;
58661;SDS011;44432;49.786;22.760;2022-08-25T02:13:58;35.20;;;9.90;;
58661;SDS011;44432;49.786;22.760;2022-08-25T02:16:30;24.30;;;9.50;;
58661;SDS011;44432;49.786;22.760;2022-08-25T02:19:03;24.90;;;9.70;;
58661;SDS011;44432;49.786;22.760;2022-08-25T02:24:06;26.30;;;9.50;;
58661;SDS011;44432;49.786;22.760;2022-08-25T02:26:38;40.50;;;9.90;;
58661;SDS011;44432;49.786;22.760;2022-08-25T02:29:09;19.80;;;9.80;;
58661;SDS011;44432;49.786;22.760;2022-08-25T02:31:41;28.00;;;10.60;;
58661;SDS011;44432;49.786;22.760;2022-08-25T02:34:11;22.80;;;10.30;;
58661;SDS011;44432;49.786;22.760;2022-08-25T02:36:43;32.90;;;10.20;;
58661;SDS011;44432;49.786;22.760;2022-08-25T02:39:13;22.00;;;9.80;;
58661;SDS011;44432;49.786;22.760;2022-08-25T02:41:44;35.80;;;9.00;;
58661;SDS011;44432;49.786;22.760;2022-08-25T02:44:14;45.40;;;10.10;;
58661;SDS011;44432;49.786;22.760;2022-08-25T02:46:45;55.70;;;10.00;;
58661;SDS011;44432;49.786;22.760;2022-08-25T02:49:15;79.20;;;9.90;;
58661;SDS011;44432;49.786;22.760;2022-08-25T02:51:46;28.60;;;9.00;;
58661;SDS011;44432;49.786;22.760;2022-08-25T02:54:16;46.00;;;9.50;;
58661;SDS011;44432;49.786;22.760;2022-08-25T02:56:49;63.20;;;9.20;;
58661;SDS011;44432;49.786;22.760;2022-08-25T02:59:20;32.60;;;9.00;;
58661;SDS011;44432;49.786;22.760;2022-08-25T03:01:50;44.50;;;9.60;;
58661;SDS011;44432;49.786;22.760;2022-08-25T03:04:21;41.90;;;9.60;;
58661;SDS011;44432;49.786;22.760;2022-08-25T03:06:51;43.00;;;9.50;;
58661;SDS011;44432;49.786;22.760;2022-08-25T03:09:22;88.50;;;9.90;;
58661;SDS011;44432;49.786;22.760;2022-08-25T03:11:54;81.80;;;9.80;;
58661;SDS011;44432;49.786;22.760;2022-08-25T03:14:24;48.10;;;9.10;;
58661;SDS011;44432;49.786;22.760;2022-08-25T03:16:55;27.80;;;9.30;;
58661;SDS011;44432;49.786;22.760;2022-08-25T03:19:25;46.00;;;9.30;;
58661;SDS011;44432;49.786;22.760;2022-08-25T03:21:56;39.20;;;9.40;;
58661;SDS011;44432;49.786;22.760;2022-08-25T03:24:27;31.50;;;8.90;;
58661;SDS011;44432;49.786;22.760;2022-08-25T03:26:58;33.00;;;9.10;;
58661;SDS011;44432;49.786;22.760;2022-08-25T03:29:30;44.90;;;8.50;;
58661;SDS011;44432;49.786;22.760;2022-08-25T03:32:02;35.00;;;8.50;;
58661;SDS011;44432;49.786;22.760;2022-08-25T03:34:33;43.90;;;8.80;;
58661;SDS011;44432;49.786;22.760;2022-08-25T03:37:03;23.80;;;9.30;;
58661;SDS011;44432;49.786;22.760;2022-08-25T03:39:35;21.00;;;8.30;;
58661;SDS011;44432;49.786;22.760;2022-08-25T03:42:06;35.30;;;8.80;;
58661;SDS011;44432;49.786;22.760;2022-08-25T03:47:08;30.20;;;8.90;;
58661;SDS011;44432;49.786;22.760;2022-08-25T03:49:39;27.50;;;8.20;;
58661;SDS011;44432;49.786;22.760;2022-08-25T03:52:10;41.90;;;8.30;;
58661;SDS011;44432;49.786;22.760;2022-08-25T03:54:41;75.90;;;8.00;;
58661;SDS011;44432;49.786;22.760;2022-08-25T03:57:12;16.30;;;7.10;;
58661;SDS011;44432;49.786;22.760;2022-08-25T03:59:42;43.30;;;7.50;;
58661;SDS011;44432;49.786;22.760;2022-08-25T04:02:13;33.70;;;7.30;;
58661;SDS011;44432;49.786;22.760;2022-08-25T04:04:43;28.20;;;6.60;;
58661;SDS011;44432;49.786;22.760;2022-08-25T04:07:14;32.30;;;7.10;;
58661;SDS011;44432;49.786;22.760;2022-08-25T04:09:45;19.60;;;7.20;;
58661;SDS011;44432;49.786;22.760;2022-08-25T04:12:15;15.10;;;7.00;;
58661;SDS011;44432;49.786;22.760;2022-08-25T04:14:46;21.80;;;7.30;;
58661;SDS011;44432;49.786;22.760;2022-08-25T04:17:17;25.70;;;8.30;;
58661;SDS011;44432;49.786;22.760;2022-08-25T04:19:49;24.30;;;7.50;;
58661;SDS011;44432;49.786;22.760;2022-08-25T04:22:20;17.20;;;7.00;;
58661;SDS011;44432;49.786;22.760;2022-08-25T04:24:50;26.50;;;7.90;;
58661;SDS011;44432;49.786;22.760;2022-08-25T04:27:21;16.70;;;7.70;;
58661;SDS011;44432;49.786;22.760;2022-08-25T04:29:52;22.10;;;6.70;;
58661;SDS011;44432;49.786;22.760;2022-08-25T04:32:23;19.10;;;7.00;;
58661;SDS011;44432;49.786;22.760;2022-08-25T04:34:54;12.70;;;7.10;;
58661;SDS011;44432;49.786;22.760;2022-08-25T04:37:25;14.70;;;7.10;;
58661;SDS011;44432;49.786;22.760;2022-08-25T04:39:56;33.60;;;7.60;;
58661;SDS011;44432;49.786;22.760;2022-08-25T04:42:26;30.90;;;8.50;;
58661;SDS011;44432;49.786;22.760;2022-08-25T04:44:57;12.90;;;7.90;;
58661;SDS011;44432;49.786;22.760;2022-08-25T04:47:28;12.80;;;7.60;;
58661;SDS011;44432;49.786;22.760;2022-08-25T04:49:59;14.00;;;7.40;;
58661;SDS011;44432;49.786;22.760;2022-08-25T04:52:30;16.10;;;7.00;;
58661;SDS011;44432;49.786;22.760;2022-08-25T04:55:01;14.80;;;6.30;;
58661;SDS011;44432;49.786;22.760;2022-08-25T04:57:32;19.80;;;6.70;;
58661;SDS011;44432;49.786;22.760;2022-08-25T05:00:04;14.90;;;7.00;;
58661;SDS011;44432;49.786;22.760;2022-08-25T05:02:36;14.10;;;6.80;;
58661;SDS011;44432;49.786;22.760;2022-08-25T05:05:06;18.00;;;7.90;;
58661;SDS011;44432;49.786;22.760;2022-08-25T05:07:37;14.60;;;7.10;;
58661;SDS011;44432;49.786;22.760;2022-08-25T05:10:08;13.40;;;7.10;;
58661;SDS011;44432;49.786;22.760;2022-08-25T05:12:39;14.90;;;7.10;;
58661;SDS011;44432;49.786;22.760;2022-08-25T05:15:10;14.90;;;6.70;;
58661;SDS011;44432;49.786;22.760;2022-08-25T05:17:58;13.00;;;7.30;;
58661;SDS011;44432;49.786;22.760;2022-08-25T05:20:29;15.50;;;7.40;;
58661;SDS011;44432;49.786;22.760;2022-08-25T05:23:00;14.30;;;6.00;;
58661;SDS011;44432;49.786;22.760;2022-08-25T05:25:31;14.40;;;6.70;;
58661;SDS011;44432;49.786;22.760;2022-08-25T05:28:02;13.80;;;5.70;;
58661;SDS011;44432;49.786;22.760;2022-08-25T05:30:33;9.90;;;6.10;;
58661;SDS011;44432;49.786;22.760;2022-08-25T05:33:07;14.20;;;6.00;;
58661;SDS011;44432;49.786;22.760;2022-08-25T05:35:39;12.80;;;6.80;;
58661;SDS011;44432;49.786;22.760;2022-08-25T05:38:10;13.80;;;6.50;;
58661;SDS011;44432;49.786;22.760;2022-08-25T05:40:40;13.30;;;6.40;;
58661;SDS011;44432;49.786;22.760;2022-08-25T05:43:11;12.90;;;6.60;;
58661;SDS011;44432;49.786;22.760;2022-08-25T05:45:42;8.80;;;5.50;;
58661;SDS011;44432;49.786;22.760;2022-08-25T05:48:13;9.90;;;6.10;;
58661;SDS011;44432;49.786;22.760;2022-08-25T05:50:50;18.70;;;6.40;;
58661;SDS011;44432;49.786;22.760;2022-08-25T05:53:22;15.20;;;6.50;;
58661;SDS011;44432;49.786;22.760;2022-08-25T05:55:55;10.40;;;6.30;;
58661;SDS011;44432;49.786;22.760;2022-08-25T05:58:27;9.40;;;5.80;;
58661;SDS011;44432;49.786;22.760;2022-08-25T06:00:59;14.90;;;6.60;;
58661;SDS011;44432;49.786;22.760;2022-08-25T06:03:50;16.90;;;6.90;;
58661;SDS011;44432;49.786;22.760;2022-08-25T06:06:21;13.70;;;7.30;;
58661;SDS011;44432;49.786;22.760;2022-08-25T06:08:52;10.00;;;6.50;;
58661;SDS011;44432;49.786;22.760;2022-08-25T06:11:23;13.30;;;6.50;;
58661;SDS011;44432;49.786;22.760;2022-08-25T06:13:54;14.30;;;6.70;;
58661;SDS011;44432;49.786;22.760;2022-08-25T06:16:24;12.10;;;6.60;;
58661;SDS011;44432;49.786;22.760;2022-08-25T06:18:55;15.40;;;7.00;;
58661;SDS011;44432;49.786;22.760;2022-08-25T06:21:25;11.90;;;7.30;;
58661;SDS011;44432;49.786;22.760;2022-08-25T06:23:57;12.50;;;6.80;;
58661;SDS011;44432;49.786;22.760;2022-08-25T06:26:27;12.00;;;6.40;;
58661;SDS011;44432;49.786;22.760;2022-08-25T06:28:58;14.00;;;7.90;;
58661;SDS011;44432;49.786;22.760;2022-08-25T06:31:29;16.10;;;7.70;;
58661;SDS011;44432;49.786;22.760;2022-08-25T06:33:59;12.00;;;7.30;;
58661;SDS011;44432;49.786;22.760;2022-08-25T06:36:30;15.30;;;7.40;;
58661;SDS011;44432;49.786;22.760;2022-08-25T06:39:01;20.20;;;8.10;;
58661;SDS011;44432;49.786;22.760;2022-08-25T06:41:32;15.10;;;8.40;;
58661;SDS011;44432;49.786;22.760;2022-08-25T06:44:03;14.70;;;7.30;;
58661;SDS011;44432;49.786;22.760;2022-08-25T06:46:34;13.00;;;8.10;;
58661;SDS011;44432;49.786;22.760;2022-08-25T06:49:05;14.50;;;7.80;;
58661;SDS011;44432;49.786;22.760;2022-08-25T06:51:36;17.90;;;8.20;;
58661;SDS011;44432;49.786;22.760;2022-08-25T06:54:08;14.20;;;7.60;;
58661;SDS011;44432;49.786;22.760;2022-08-25T06:56:39;13.40;;;7.90;;
58661;SDS011;44432;49.786;22.760;2022-08-25T06:59:11;20.80;;;8.00;;
58661;SDS011;44432;49.786;22.760;2022-08-25T07:01:41;15.00;;;8.10;;
58661;SDS011;44432;49.786;22.760;2022-08-25T07:04:12;21.10;;;9.40;;
58661;SDS011;44432;49.786;22.760;2022-08-25T07:06:43;22.90;;;9.00;;
58661;SDS011;44432;49.786;22.760;2022-08-25T07:09:14;18.30;;;9.20;;
58661;SDS011;44432;49.786;22.760;2022-08-25T07:11:45;19.90;;;8.90;;
58661;SDS011;44432;49.786;22.760;2022-08-25T07:14:16;16.60;;;8.30;;
58661;SDS011;44432;49.786;22.760;2022-08-25T07:16:47;20.00;;;8.50;;
58661;SDS011;44432;49.786;22.760;2022-08-25T07:19:17;25.80;;;8.50;;
58661;SDS011;44432;49.786;22.760;2022-08-25T07:21:50;26.70;;;8.60;;
58661;SDS011;44432;49.786;22.760;2022-08-25T07:26:50;19.30;;;8.10;;
58661;SDS011;44432;49.786;22.760;2022-08-25T07:29:22;26.60;;;11.40;;
58661;SDS011;44432;49.786;22.760;2022-08-25T07:31:55;29.30;;;10.70;;
58661;SDS011;44432;49.786;22.760;2022-08-25T07:34:25;26.30;;;11.50;;
58661;SDS011;44432;49.786;22.760;2022-08-25T07:37:14;22.10;;;10.10;;
58661;SDS011;44432;49.786;22.760;2022-08-25T07:39:45;22.70;;;10.30;;
58661;SDS011;44432;49.786;22.760;2022-08-25T07:42:16;26.30;;;10.30;;
58661;SDS011;44432;49.786;22.760;2022-08-25T07:44:46;22.40;;;10.20;;
58661;SDS011;44432;49.786;22.760;2022-08-25T07:47:17;21.70;;;9.20;;
58661;SDS011;44432;49.786;22.760;2022-08-25T07:49:48;30.20;;;9.20;;
58661;SDS011;44432;49.786;22.760;2022-08-25T07:52:19;34.90;;;10.10;;
58661;SDS011;44432;49.786;22.760;2022-08-25T07:54:49;25.00;;;9.50;;
58661;SDS011;44432;49.786;22.760;2022-08-25T07:57:21;28.50;;;9.40;;
58661;SDS011;44432;49.786;22.760;2022-08-25T07:59:53;30.00;;;12.80;;
58661;SDS011;44432;49.786;22.760;2022-08-25T08:02:25;32.60;;;8.70;;
58661;SDS011;44432;49.786;22.760;2022-08-25T08:04:56;23.50;;;9.40;;
58661;SDS011;44432;49.786;22.760;2022-08-25T08:07:28;33.50;;;9.10;;
58661;SDS011;44432;49.786;22.760;2022-08-25T08:09:59;28.40;;;9.50;;
58661;SDS011;44432;49.786;22.760;2022-08-25T08:12:31;27.40;;;9.20;;
58661;SDS011;44432;49.786;22.760;2022-08-25T08:15:03;30.20;;;10.00;;
58661;SDS011;44432;49.786;22.760;2022-08-25T08:17:35;32.20;;;9.30;;
58661;SDS011;44432;49.786;22.760;2022-08-25T08:20:07;38.40;;;9.40;;
58661;SDS011;44432;49.786;22.760;2022-08-25T08:22:40;26.50;;;8.70;;
58661;SDS011;44432;49.786;22.760;2022-08-25T08:25:11;23.40;;;7.70;;
58661;SDS011;44432;49.786;22.760;2022-08-25T08:27:42;27.40;;;8.10;;
58661;SDS011;44432;49.786;22.760;2022-08-25T08:30:14;33.10;;;7.40;;
58661;SDS011;44432;49.786;22.760;2022-08-25T08:32:44;28.60;;;7.10;;
58661;SDS011;44432;49.786;22.760;2022-08-25T08:35:16;23.70;;;7.30;;
58661;SDS011;44432;49.786;22.760;2022-08-25T08:37:47;25.80;;;7.30;;
58661;SDS011;44432;49.786;22.760;2022-08-25T08:40:18;21.30;;;7.50;;
58661;SDS011;44432;49.786;22.760;2022-08-25T08:42:53;21.90;;;8.10;;
58661;SDS011;44432;49.786;22.760;2022-08-25T08:45:35;21.70;;;7.60;;
58661;SDS011;44432;49.786;22.760;2022-08-25T08:48:17;23.20;;;7.00;;
58661;SDS011;44432;49.786;22.760;2022-08-25T08:51:03;24.00;;;6.90;;
58661;SDS011;44432;49.786;22.760;2022-08-25T08:53:42;19.80;;;7.00;;
58661;SDS011;44432;49.786;22.760;2022-08-25T08:56:18;26.00;;;6.50;;
58661;SDS011;44432;49.786;22.760;2022-08-25T08:58:51;19.80;;;6.70;;
58661;SDS011;44432;49.786;22.760;2022-08-25T09:01:25;18.30;;;5.70;;
58661;SDS011;44432;49.786;22.760;2022-08-25T09:04:02;15.00;;;6.90;;
58661;SDS011;44432;49.786;22.760;2022-08-25T09:06:37;19.50;;;7.60;;
58661;SDS011;44432;49.786;22.760;2022-08-25T09:09:10;22.00;;;6.40;;
58661;SDS011;44432;49.786;22.760;2022-08-25T09:11:48;21.70;;;6.10;;
58661;SDS011;44432;49.786;22.760;2022-08-25T09:14:34;23.40;;;7.00;;
58661;SDS011;44432;49.786;22.760;2022-08-25T09:17:14;21.50;;;6.50;;
58661;SDS011;44432;49.786;22.760;2022-08-25T09:20:02;27.20;;;6.40;;
58661;SDS011;44432;49.786;22.760;2022-08-25T09:22:45;20.80;;;6.00;;
58661;SDS011;44432;49.786;22.760;2022-08-25T09:25:30;16.60;;;4.90;;
58661;SDS011;44432;49.786;22.760;2022-08-25T09:28:11;17.00;;;5.00;;
58661;SDS011;44432;49.786;22.760;2022-08-25T09:30:53;13.90;;;5.30;;
58661;SDS011;44432;49.786;22.760;2022-08-25T09:33:29;20.70;;;5.70;;
58661;SDS011;44432;49.786;22.760;2022-08-25T09:36:02;18.50;;;4.60;;
58661;SDS011;44432;49.786;22.760;2022-08-25T09:38:33;19.40;;;5.10;;
58661;SDS011;44432;49.786;22.760;2022-08-25T09:41:04;21.90;;;4.90;;
58661;SDS011;44432;49.786;22.760;2022-08-25T09:43:40;16.10;;;5.30;;
58661;SDS011;44432;49.786;22.760;2022-08-25T09:46:13;17.40;;;4.50;;
58661;SDS011;44432;49.786;22.760;2022-08-25T09:48:46;21.90;;;7.10;;
58661;SDS011;44432;49.786;22.760;2022-08-25T09:51:26;21.90;;;5.30;;
58661;SDS011;44432;49.786;22.760;2022-08-25T09:53:58;22.50;;;6.30;;
58661;SDS011;44432;49.786;22.760;2022-08-25T09:56:32;18.10;;;5.30;;
58661;SDS011;44432;49.786;22.760;2022-08-25T09:59:19;21.00;;;5.90;;
58661;SDS011;44432;49.786;22.760;2022-08-25T10:01:52;14.40;;;5.00;;
58661;SDS011;44432;49.786;22.760;2022-08-25T10:04:25;17.60;;;5.30;;
58661;SDS011;44432;49.786;22.760;2022-08-25T10:06:58;14.90;;;4.40;;
58661;SDS011;44432;49.786;22.760;2022-08-25T10:09:32;18.00;;;4.30;;
58661;SDS011;44432;49.786;22.760;2022-08-25T10:12:15;21.30;;;5.00;;
58661;SDS011;44432;49.786;22.760;2022-08-25T10:14:50;18.60;;;4.90;;
58661;SDS011;44432;49.786;22.760;2022-08-25T10:17:24;19.40;;;5.50;;
58661;SDS011;44432;49.786;22.760;2022-08-25T10:20:12;19.50;;;4.70;;
58661;SDS011;44432;49.786;22.760;2022-08-25T10:22:47;19.30;;;5.10;;
58661;SDS011;44432;49.786;22.760;2022-08-25T10:25:19;19.10;;;5.20;;
58661;SDS011;44432;49.786;22.760;2022-08-25T10:27:57;14.10;;;4.20;;
58661;SDS011;44432;49.786;22.760;2022-08-25T10:30:43;19.00;;;4.40;;
58661;SDS011;44432;49.786;22.760;2022-08-25T10:33:27;15.10;;;4.10;;
58661;SDS011;44432;49.786;22.760;2022-08-25T10:36:09;13.90;;;4.20;;
58661;SDS011;44432;49.786;22.760;2022-08-25T10:38:46;12.80;;;3.90;;
58661;SDS011;44432;49.786;22.760;2022-08-25T10:41:25;19.60;;;4.50;;
58661;SDS011;44432;49.786;22.760;2022-08-25T10:44:09;11.40;;;4.10;;
58661;SDS011;44432;49.786;22.760;2022-08-25T10:47:19;15.20;;;4.50;;
58661;SDS011;44432;49.786;22.760;2022-08-25T10:50:04;12.80;;;4.10;;
58661;SDS011;44432;49.786;22.760;2022-08-25T10:52:45;15.40;;;4.10;;
58661;SDS011;44432;49.786;22.760;2022-08-25T10:55:41;17.70;;;3.50;;
58661;SDS011;44432;49.786;22.760;2022-08-25T10:58:19;14.10;;;3.60;;
58661;SDS011;44432;49.786;22.760;2022-08-25T11:01:00;15.80;;;4.10;;
58661;SDS011;44432;49.786;22.760;2022-08-25T11:03:43;13.60;;;3.60;;
58661;SDS011;44432;49.786;22.760;2022-08-25T11:06:19;27.20;;;5.70;;
58661;SDS011;44432;49.786;22.760;2022-08-25T11:09:05;19.10;;;4.50;;
58661;SDS011;44432;49.786;22.760;2022-08-25T11:11:41;13.40;;;3.60;;
58661;SDS011;44432;49.786;22.760;2022-08-25T11:14:18;11.00;;;3.30;;
58661;SDS011;44432;49.786;22.760;2022-08-25T11:16:55;14.80;;;3.70;;
58661;SDS011;44432;49.786;22.760;2022-08-25T11:19:29;14.00;;;4.20;;
58661;SDS011;44432;49.786;22.760;2022-08-25T11:22:06;14.60;;;3.70;;
58661;SDS011;44432;49.786;22.760;2022-08-25T11:24:44;14.70;;;4.00;;
58661;SDS011;44432;49.786;22.760;2022-08-25T11:27:25;17.70;;;3.50;;
58661;SDS011;44432;49.786;22.760;2022-08-25T11:30:04;13.40;;;3.50;;
58661;SDS011;44432;49.786;22.760;2022-08-25T11:32:38;13.20;;;4.30;;
58661;SDS011;44432;49.786;22.760;2022-08-25T11:35:12;9.40;;;3.00;;
58661;SDS011;44432;49.786;22.760;2022-08-25T11:37:52;11.30;;;3.60;;
58661;SDS011;44432;49.786;22.760;2022-08-25T11:40:42;13.00;;;3.80;;
58661;SDS011;44432;49.786;22.760;2022-08-25T11:43:38;9.90;;;3.60;;
58661;SDS011;44432;49.786;22.760;2022-08-25T11:46:24;10.80;;;3.40;;
58661;SDS011;44432;49.786;22.760;2022-08-25T11:49:22;15.60;;;3.90;;
58661;SDS011;44432;49.786;22.760;2022-08-25T11:52:05;10.50;;;3.30;;
58661;SDS011;44432;49.786;22.760;2022-08-25T11:54:56;8.90;;;3.60;;
58661;SDS011;44432;49.786;22.760;2022-08-25T12:00:10;15.80;;;3.40;;
58661;SDS011;44432;49.786;22.760;2022-08-25T12:02:44;12.50;;;3.60;;
58661;SDS011;44432;49.786;22.760;2022-08-25T12:14:16;11.00;;;2.80;;
58661;SDS011;44432;49.786;22.760;2022-08-25T12:17:15;6.40;;;2.70;;
58661;SDS011;44432;49.786;22.760;2022-08-25T12:19:57;11.90;;;2.90;;
58661;SDS011;44432;49.786;22.760;2022-08-25T12:28:29;6.80;;;2.60;;
58661;SDS011;44432;49.786;22.760;2022-08-25T12:31:15;17.00;;;3.70;;
58661;SDS011;44432;49.786;22.760;2022-08-25T12:33:59;12.20;;;2.80;;
58661;SDS011;44432;49.786;22.760;2022-08-25T12:36:38;8.10;;;3.80;;
58661;SDS011;44432;49.786;22.760;2022-08-25T12:39:22;9.30;;;3.30;;
58661;SDS011;44432;49.786;22.760;2022-08-25T12:42:00;11.70;;;2.70;;
58661;SDS011;44432;49.786;22.760;2022-08-25T12:44:35;9.70;;;2.90;;
58661;SDS011;44432;49.786;22.760;2022-08-25T12:47:13;9.30;;;2.80;;
58661;SDS011;44432;49.786;22.760;2022-08-25T12:53:14;6.90;;;2.50;;
58661;SDS011;44432;49.786;22.760;2022-08-25T12:55:53;9.80;;;2.90;;
58661;SDS011;44432;49.786;22.760;2022-08-25T13:01:19;8.50;;;3.40;;
58661;SDS011;44432;49.786;22.760;2022-08-25T13:04:10;10.50;;;2.70;;
58661;SDS011;44432;49.786;22.760;2022-08-25T13:07:03;7.30;;;2.70;;
58661;SDS011;44432;49.786;22.760;2022-08-25T13:10:09;10.70;;;2.60;;
58661;SDS011;44432;49.786;22.760;2022-08-25T13:12:51;6.30;;;2.50;;
58661;SDS011;44432;49.786;22.760;2022-08-25T13:15:27;9.80;;;2.80;;
58661;SDS011;44432;49.786;22.760;2022-08-25T13:18:14;7.70;;;2.90;;
58661;SDS011;44432;49.786;22.760;2022-08-25T13:20:47;8.80;;;2.90;;
58661;SDS011;44432;49.786;22.760;2022-08-25T13:23:23;10.20;;;2.90;;
58661;SDS011;44432;49.786;22.760;2022-08-25T13:25:58;10.90;;;3.30;;
58661;SDS011;44432;49.786;22.760;2022-08-25T13:28:30;8.90;;;3.00;;
58661;SDS011;44432;49.786;22.760;2022-08-25T13:31:05;10.20;;;3.30;;
58661;SDS011;44432;49.786;22.760;2022-08-25T13:33:37;11.60;;;4.20;;
58661;SDS011;44432;49.786;22.760;2022-08-25T13:36:17;7.90;;;2.70;;
58661;SDS011;44432;49.786;22.760;2022-08-25T13:39:16;9.00;;;2.90;;
58661;SDS011;44432;49.786;22.760;2022-08-25T13:41:49;10.10;;;2.70;;
58661;SDS011;44432;49.786;22.760;2022-08-25T13:44:23;9.90;;;3.70;;
58661;SDS011;44432;49.786;22.760;2022-08-25T13:47:06;8.90;;;2.90;;
58661;SDS011;44432;49.786;22.760;2022-08-25T13:49:39;6.30;;;2.50;;
58661;SDS011;44432;49.786;22.760;2022-08-25T13:52:16;10.50;;;2.40;;
58661;SDS011;44432;49.786;22.760;2022-08-25T13:54:55;8.70;;;2.60;;
58661;SDS011;44432;49.786;22.760;2022-08-25T13:57:28;14.00;;;2.70;;
58661;SDS011;44432;49.786;22.760;2022-08-25T14:00:03;8.60;;;2.00;;
58661;SDS011;44432;49.786;22.760;2022-08-25T14:02:42;7.90;;;2.60;;
58661;SDS011;44432;49.786;22.760;2022-08-25T14:05:15;10.00;;;2.80;;
58661;SDS011;44432;49.786;22.760;2022-08-25T14:07:58;13.30;;;2.80;;
58661;SDS011;44432;49.786;22.760;2022-08-25T14:10:33;7.60;;;2.50;;
58661;SDS011;44432;49.786;22.760;2022-08-25T14:13:12;6.60;;;2.30;;
58661;SDS011;44432;49.786;22.760;2022-08-25T14:15:45;10.40;;;2.60;;
58661;SDS011;44432;49.786;22.760;2022-08-25T14:18:17;6.70;;;2.20;;
58661;SDS011;44432;49.786;22.760;2022-08-25T14:20:52;8.70;;;2.20;;
58661;SDS011;44432;49.786;22.760;2022-08-25T14:23:24;7.70;;;2.70;;
58661;SDS011;44432;49.786;22.760;2022-08-25T14:25:58;9.30;;;2.70;;
58661;SDS011;44432;49.786;22.760;2022-08-25T14:28:29;9.20;;;2.50;;
58661;SDS011;44432;49.786;22.760;2022-08-25T14:31:10;11.80;;;2.70;;
58661;SDS011;44432;49.786;22.760;2022-08-25T14:33:46;8.40;;;3.00;;
58661;SDS011;44432;49.786;22.760;2022-08-25T14:36:20;8.10;;;2.90;;
58661;SDS011;44432;49.786;22.760;2022-08-25T14:38:51;7.90;;;2.20;;
58661;SDS011;44432;49.786;22.760;2022-08-25T14:41:22;8.50;;;3.00;;
58661;SDS011;44432;49.786;22.760;2022-08-25T14:43:53;7.00;;;2.20;;
58661;SDS011;44432;49.786;22.760;2022-08-25T14:46:25;6.80;;;2.50;;
58661;SDS011;44432;49.786;22.760;2022-08-25T14:48:57;11.50;;;2.50;;
58661;SDS011;44432;49.786;22.760;2022-08-25T14:51:30;6.20;;;2.30;;
58661;SDS011;44432;49.786;22.760;2022-08-25T14:54:03;9.70;;;2.70;;
58661;SDS011;44432;49.786;22.760;2022-08-25T14:56:35;10.20;;;3.00;;
58661;SDS011;44432;49.786;22.760;2022-08-25T14:59:05;10.60;;;2.50;;
58661;SDS011;44432;49.786;22.760;2022-08-25T15:01:36;9.80;;;2.30;;
58661;SDS011;44432;49.786;22.760;2022-08-25T15:04:08;10.50;;;2.50;;
58661;SDS011;44432;49.786;22.760;2022-08-25T15:06:41;7.50;;;2.20;;
58661;SDS011;44432;49.786;22.760;2022-08-25T15:09:15;8.00;;;2.50;;
58661;SDS011;44432;49.786;22.760;2022-08-25T15:11:49;6.50;;;2.50;;
58661;SDS011;44432;49.786;22.760;2022-08-25T15:14:22;9.70;;;2.80;;
58661;SDS011;44432;49.786;22.760;2022-08-25T15:16:53;6.30;;;2.30;;
58661;SDS011;44432;49.786;22.760;2022-08-25T15:19:25;9.20;;;2.20;;
58661;SDS011;44432;49.786;22.760;2022-08-25T15:21:56;4.80;;;2.10;;
58661;SDS011;44432;49.786;22.760;2022-08-25T15:24:27;8.60;;;2.30;;
58661;SDS011;44432;49.786;22.760;2022-08-25T15:26:58;5.20;;;2.00;;
58661;SDS011;44432;49.786;22.760;2022-08-25T15:29:32;10.30;;;2.10;;
58661;SDS011;44432;49.786;22.760;2022-08-25T15:32:04;11.20;;;2.20;;
58661;SDS011;44432;49.786;22.760;2022-08-25T15:34:36;7.60;;;2.10;;
58661;SDS011;44432;49.786;22.760;2022-08-25T15:37:07;7.40;;;2.20;;